sensor_id;sensor_type;location;lat;lon;timestamp;P1;durP1;ratioP1;P2;durP2;ratioP2
5898;SDS011;2975;50.956;6.962;2023-02-20T00:00:17;11.43;;;6.47;;
5898;SDS011;2975;50.956;6.962;2023-02-20T00:02:47;10.33;;;6.10;;
5898;SDS011;2975;50.956;6.962;2023-02-20T00:05:13;12.03;;;6.70;;
5898;SDS011;2975;50.956;6.962;2023-02-20T00:07:40;9.70;;;6.67;;
5898;SDS011;2975;50.956;6.962;2023-02-20T00:10:06;12.07;;;7.57;;
5898;SDS011;2975;50.956;6.962;2023-02-20T00:12:32;9.40;;;6.40;;
5898;SDS011;2975;50.956;6.962;2023-02-20T00:14:57;13.47;;;6.57;;
5898;SDS011;2975;50.956;6.962;2023-02-20T00:17:23;12.57;;;6.60;;
5898;SDS011;2975;50.956;6.962;2023-02-20T00:19:49;11.77;;;7.13;;
5898;SDS011;2975;50.956;6.962;2023-02-20T00:22:14;14.17;;;7.93;;
5898;SDS011;2975;50.956;6.962;2023-02-20T00:24:40;16.10;;;7.83;;
5898;SDS011;2975;50.956;6.962;2023-02-20T00:27:06;16.50;;;8.27;;
5898;SDS011;2975;50.956;6.962;2023-02-20T00:29:32;15.17;;;8.23;;
5898;SDS011;2975;50.956;6.962;2023-02-20T00:31:57;15.73;;;7.77;;
5898;SDS011;2975;50.956;6.962;2023-02-20T00:34:25;17.57;;;8.40;;
5898;SDS011;2975;50.956;6.962;2023-02-20T00:36:51;14.00;;;8.23;;
5898;SDS011;2975;50.956;6.962;2023-02-20T00:39:17;16.47;;;7.47;;
5898;SDS011;2975;50.956;6.962;2023-02-20T00:41:43;15.20;;;8.60;;
5898;SDS011;2975;50.956;6.962;2023-02-20T00:44:09;16.00;;;8.50;;
5898;SDS011;2975;50.956;6.962;2023-02-20T00:46:34;14.93;;;8.37;;
5898;SDS011;2975;50.956;6.962;2023-02-20T00:49:00;13.80;;;7.87;;
5898;SDS011;2975;50.956;6.962;2023-02-20T00:51:26;13.13;;;8.13;;
5898;SDS011;2975;50.956;6.962;2023-02-20T00:53:51;14.83;;;8.43;;
5898;SDS011;2975;50.956;6.962;2023-02-20T00:56:17;16.53;;;8.50;;
5898;SDS011;2975;50.956;6.962;2023-02-20T00:58:43;14.83;;;7.73;;
5898;SDS011;2975;50.956;6.962;2023-02-20T01:01:08;12.70;;;7.73;;
5898;SDS011;2975;50.956;6.962;2023-02-20T01:03:34;17.57;;;8.87;;
5898;SDS011;2975;50.956;6.962;2023-02-20T01:06:00;16.10;;;9.43;;
5898;SDS011;2975;50.956;6.962;2023-02-20T01:08:25;12.47;;;7.43;;
5898;SDS011;2975;50.956;6.962;2023-02-20T01:10:51;15.40;;;7.53;;
5898;SDS011;2975;50.956;6.962;2023-02-20T01:13:17;16.90;;;8.40;;
5898;SDS011;2975;50.956;6.962;2023-02-20T01:15:43;13.10;;;8.17;;
5898;SDS011;2975;50.956;6.962;2023-02-20T01:18:09;16.67;;;8.10;;
5898;SDS011;2975;50.956;6.962;2023-02-20T01:20:34;14.00;;;7.63;;
5898;SDS011;2975;50.956;6.962;2023-02-20T01:23:00;13.27;;;6.93;;
5898;SDS011;2975;50.956;6.962;2023-02-20T01:25:26;13.73;;;7.87;;
5898;SDS011;2975;50.956;6.962;2023-02-20T01:27:51;13.67;;;7.43;;
5898;SDS011;2975;50.956;6.962;2023-02-20T01:30:17;12.60;;;7.37;;
5898;SDS011;2975;50.956;6.962;2023-02-20T01:32:43;13.63;;;8.73;;
5898;SDS011;2975;50.956;6.962;2023-02-20T01:35:08;15.00;;;8.63;;
5898;SDS011;2975;50.956;6.962;2023-02-20T01:37:34;13.90;;;8.20;;
5898;SDS011;2975;50.956;6.962;2023-02-20T01:40:00;13.70;;;8.27;;
5898;SDS011;2975;50.956;6.962;2023-02-20T01:42:27;15.03;;;8.60;;
5898;SDS011;2975;50.956;6.962;2023-02-20T01:45:10;13.13;;;7.87;;
5898;SDS011;2975;50.956;6.962;2023-02-20T01:47:39;13.57;;;8.47;;
5898;SDS011;2975;50.956;6.962;2023-02-20T01:50:05;12.27;;;8.07;;
5898;SDS011;2975;50.956;6.962;2023-02-20T01:52:32;13.93;;;8.40;;
5898;SDS011;2975;50.956;6.962;2023-02-20T01:55:01;12.20;;;7.97;;
5898;SDS011;2975;50.956;6.962;2023-02-20T01:57:27;12.93;;;8.37;;
5898;SDS011;2975;50.956;6.962;2023-02-20T01:59:56;13.50;;;7.97;;
5898;SDS011;2975;50.956;6.962;2023-02-20T02:02:30;13.10;;;7.60;;
5898;SDS011;2975;50.956;6.962;2023-02-20T02:04:59;14.77;;;7.87;;
5898;SDS011;2975;50.956;6.962;2023-02-20T02:07:25;12.53;;;8.07;;
5898;SDS011;2975;50.956;6.962;2023-02-20T02:09:57;11.63;;;7.97;;
5898;SDS011;2975;50.956;6.962;2023-02-20T02:12:26;12.90;;;8.20;;
5898;SDS011;2975;50.956;6.962;2023-02-20T02:14:52;14.50;;;8.10;;
5898;SDS011;2975;50.956;6.962;2023-02-20T02:17:28;14.00;;;8.47;;
5898;SDS011;2975;50.956;6.962;2023-02-20T02:22:51;11.47;;;7.53;;
5898;SDS011;2975;50.956;6.962;2023-02-20T02:36:50;8.87;;;6.70;;
5898;SDS011;2975;50.956;6.962;2023-02-20T02:50:30;8.97;;;5.50;;
5898;SDS011;2975;50.956;6.962;2023-02-20T02:53:00;8.30;;;5.37;;
5898;SDS011;2975;50.956;6.962;2023-02-20T02:55:28;11.43;;;5.93;;
5898;SDS011;2975;50.956;6.962;2023-02-20T02:57:57;8.33;;;5.77;;
5898;SDS011;2975;50.956;6.962;2023-02-20T03:00:25;8.30;;;6.10;;
5898;SDS011;2975;50.956;6.962;2023-02-20T03:05:56;9.30;;;6.33;;
5898;SDS011;2975;50.956;6.962;2023-02-20T03:11:28;7.47;;;5.70;;
5898;SDS011;2975;50.956;6.962;2023-02-20T03:13:58;8.70;;;6.07;;
5898;SDS011;2975;50.956;6.962;2023-02-20T03:19:36;8.77;;;5.93;;
5898;SDS011;2975;50.956;6.962;2023-02-20T03:23:09;8.50;;;5.63;;
5898;SDS011;2975;50.956;6.962;2023-02-20T03:25:13;8.10;;;5.43;;
5898;SDS011;2975;50.956;6.962;2023-02-20T03:32:50;11.23;;;5.80;;
5898;SDS011;2975;50.956;6.962;2023-02-20T03:35:41;8.07;;;5.33;;
5898;SDS011;2975;50.956;6.962;2023-02-20T03:38:28;11.13;;;5.80;;
5898;SDS011;2975;50.956;6.962;2023-02-20T03:41:13;9.43;;;5.93;;
5898;SDS011;2975;50.956;6.962;2023-02-20T03:43:59;9.00;;;5.73;;
5898;SDS011;2975;50.956;6.962;2023-02-20T03:46:28;9.37;;;5.73;;
5898;SDS011;2975;50.956;6.962;2023-02-20T03:48:58;8.40;;;5.33;;
5898;SDS011;2975;50.956;6.962;2023-02-20T03:51:28;9.57;;;5.67;;
5898;SDS011;2975;50.956;6.962;2023-02-20T03:53:53;9.37;;;5.77;;
5898;SDS011;2975;50.956;6.962;2023-02-20T03:57:03;8.33;;;5.70;;
5898;SDS011;2975;50.956;6.962;2023-02-20T03:59:17;9.10;;;6.00;;
5898;SDS011;2975;50.956;6.962;2023-02-20T04:01:47;10.47;;;6.63;;
5898;SDS011;2975;50.956;6.962;2023-02-20T04:04:18;7.80;;;5.20;;
5898;SDS011;2975;50.956;6.962;2023-02-20T04:06:47;8.93;;;5.60;;
5898;SDS011;2975;50.956;6.962;2023-02-20T04:09:16;8.47;;;5.67;;
5898;SDS011;2975;50.956;6.962;2023-02-20T04:12:04;10.87;;;6.20;;
5898;SDS011;2975;50.956;6.962;2023-02-20T04:14:35;9.47;;;5.70;;
5898;SDS011;2975;50.956;6.962;2023-02-20T04:17:02;10.47;;;5.60;;
5898;SDS011;2975;50.956;6.962;2023-02-20T04:19:32;12.60;;;5.50;;
5898;SDS011;2975;50.956;6.962;2023-02-20T04:21:59;10.07;;;6.30;;
5898;SDS011;2975;50.956;6.962;2023-02-20T04:24:29;13.33;;;5.57;;
5898;SDS011;2975;50.956;6.962;2023-02-20T04:27:00;8.77;;;6.50;;
5898;SDS011;2975;50.956;6.962;2023-02-20T04:29:26;11.47;;;6.40;;
5898;SDS011;2975;50.956;6.962;2023-02-20T04:31:52;10.07;;;6.30;;
5898;SDS011;2975;50.956;6.962;2023-02-20T04:34:17;11.07;;;6.93;;
5898;SDS011;2975;50.956;6.962;2023-02-20T04:36:43;8.53;;;6.07;;
5898;SDS011;2975;50.956;6.962;2023-02-20T04:39:09;11.07;;;6.40;;
5898;SDS011;2975;50.956;6.962;2023-02-20T04:41:34;11.40;;;6.13;;
5898;SDS011;2975;50.956;6.962;2023-02-20T04:44:00;10.13;;;5.77;;
5898;SDS011;2975;50.956;6.962;2023-02-20T04:46:44;11.27;;;6.07;;
5898;SDS011;2975;50.956;6.962;2023-02-20T04:49:09;13.03;;;6.27;;
5898;SDS011;2975;50.956;6.962;2023-02-20T04:51:35;9.27;;;6.30;;
5898;SDS011;2975;50.956;6.962;2023-02-20T04:54:00;10.63;;;6.13;;
5898;SDS011;2975;50.956;6.962;2023-02-20T04:56:26;11.60;;;5.60;;
5898;SDS011;2975;50.956;6.962;2023-02-20T04:58:52;9.03;;;5.83;;
5898;SDS011;2975;50.956;6.962;2023-02-20T05:01:17;12.43;;;6.40;;
5898;SDS011;2975;50.956;6.962;2023-02-20T05:03:43;9.27;;;5.90;;
5898;SDS011;2975;50.956;6.962;2023-02-20T05:06:09;9.37;;;6.33;;
5898;SDS011;2975;50.956;6.962;2023-02-20T05:08:34;7.80;;;5.60;;
5898;SDS011;2975;50.956;6.962;2023-02-20T05:11:00;9.33;;;6.40;;
5898;SDS011;2975;50.956;6.962;2023-02-20T05:13:25;10.47;;;6.17;;
5898;SDS011;2975;50.956;6.962;2023-02-20T05:15:51;11.63;;;5.80;;
5898;SDS011;2975;50.956;6.962;2023-02-20T05:18:26;9.90;;;6.20;;
5898;SDS011;2975;50.956;6.962;2023-02-20T05:20:52;12.80;;;6.80;;
5898;SDS011;2975;50.956;6.962;2023-02-20T05:23:37;11.23;;;6.00;;
5898;SDS011;2975;50.956;6.962;2023-02-20T05:26:02;14.80;;;7.23;;
5898;SDS011;2975;50.956;6.962;2023-02-20T05:28:36;8.73;;;5.87;;
5898;SDS011;2975;50.956;6.962;2023-02-20T05:31:03;11.27;;;6.53;;
5898;SDS011;2975;50.956;6.962;2023-02-20T05:33:30;12.47;;;8.00;;
5898;SDS011;2975;50.956;6.962;2023-02-20T05:35:57;9.73;;;5.87;;
5898;SDS011;2975;50.956;6.962;2023-02-20T05:38:23;9.13;;;6.57;;
5898;SDS011;2975;50.956;6.962;2023-02-20T05:40:49;9.57;;;6.30;;
5898;SDS011;2975;50.956;6.962;2023-02-20T05:43:17;12.87;;;6.37;;
5898;SDS011;2975;50.956;6.962;2023-02-20T05:45:43;14.00;;;6.23;;
5898;SDS011;2975;50.956;6.962;2023-02-20T05:48:12;8.37;;;5.70;;
5898;SDS011;2975;50.956;6.962;2023-02-20T05:50:38;9.30;;;5.50;;
5898;SDS011;2975;50.956;6.962;2023-02-20T05:53:03;9.63;;;5.60;;
5898;SDS011;2975;50.956;6.962;2023-02-20T05:55:29;12.93;;;6.90;;
5898;SDS011;2975;50.956;6.962;2023-02-20T05:57:55;13.63;;;6.83;;
5898;SDS011;2975;50.956;6.962;2023-02-20T06:00:21;11.83;;;6.50;;
5898;SDS011;2975;50.956;6.962;2023-02-20T06:02:47;10.93;;;6.90;;
5898;SDS011;2975;50.956;6.962;2023-02-20T06:05:13;13.03;;;7.03;;
5898;SDS011;2975;50.956;6.962;2023-02-20T06:07:41;10.33;;;6.57;;
5898;SDS011;2975;50.956;6.962;2023-02-20T06:10:08;10.03;;;6.13;;
5898;SDS011;2975;50.956;6.962;2023-02-20T06:12:33;12.90;;;7.37;;
5898;SDS011;2975;50.956;6.962;2023-02-20T06:14:59;14.10;;;7.03;;
5898;SDS011;2975;50.956;6.962;2023-02-20T06:17:24;11.80;;;6.37;;
5898;SDS011;2975;50.956;6.962;2023-02-20T06:19:50;11.13;;;6.77;;
5898;SDS011;2975;50.956;6.962;2023-02-20T06:22:16;11.03;;;6.63;;
5898;SDS011;2975;50.956;6.962;2023-02-20T06:24:46;11.50;;;5.97;;
5898;SDS011;2975;50.956;6.962;2023-02-20T06:27:13;17.77;;;9.10;;
5898;SDS011;2975;50.956;6.962;2023-02-20T06:29:39;10.20;;;6.63;;
5898;SDS011;2975;50.956;6.962;2023-02-20T06:32:05;13.33;;;6.83;;
5898;SDS011;2975;50.956;6.962;2023-02-20T06:34:31;11.53;;;6.90;;
5898;SDS011;2975;50.956;6.962;2023-02-20T06:37:00;12.27;;;6.70;;
5898;SDS011;2975;50.956;6.962;2023-02-20T06:39:27;10.57;;;6.43;;
5898;SDS011;2975;50.956;6.962;2023-02-20T06:41:53;11.20;;;6.63;;
5898;SDS011;2975;50.956;6.962;2023-02-20T06:44:19;12.10;;;6.67;;
5898;SDS011;2975;50.956;6.962;2023-02-20T06:46:46;10.63;;;7.07;;
5898;SDS011;2975;50.956;6.962;2023-02-20T06:49:12;13.30;;;7.53;;
5898;SDS011;2975;50.956;6.962;2023-02-20T06:51:38;11.33;;;7.63;;
5898;SDS011;2975;50.956;6.962;2023-02-20T06:54:04;12.83;;;7.40;;
5898;SDS011;2975;50.956;6.962;2023-02-20T06:56:31;12.87;;;8.00;;
5898;SDS011;2975;50.956;6.962;2023-02-20T06:58:59;15.00;;;7.20;;
5898;SDS011;2975;50.956;6.962;2023-02-20T07:01:27;11.83;;;7.37;;
5898;SDS011;2975;50.956;6.962;2023-02-20T07:03:54;13.33;;;7.57;;
5898;SDS011;2975;50.956;6.962;2023-02-20T07:06:22;11.33;;;7.47;;
5898;SDS011;2975;50.956;6.962;2023-02-20T07:08:48;10.20;;;6.40;;
5898;SDS011;2975;50.956;6.962;2023-02-20T07:11:15;10.33;;;6.47;;
5898;SDS011;2975;50.956;6.962;2023-02-20T07:13:42;11.13;;;7.40;;
5898;SDS011;2975;50.956;6.962;2023-02-20T07:16:08;11.47;;;6.87;;
5898;SDS011;2975;50.956;6.962;2023-02-20T07:18:33;9.93;;;6.87;;
5898;SDS011;2975;50.956;6.962;2023-02-20T07:20:59;14.03;;;7.10;;
5898;SDS011;2975;50.956;6.962;2023-02-20T07:23:25;12.33;;;7.00;;
5898;SDS011;2975;50.956;6.962;2023-02-20T07:25:50;12.93;;;6.97;;
5898;SDS011;2975;50.956;6.962;2023-02-20T07:28:17;12.00;;;6.80;;
5898;SDS011;2975;50.956;6.962;2023-02-20T07:30:43;12.77;;;7.30;;
5898;SDS011;2975;50.956;6.962;2023-02-20T07:33:10;11.20;;;7.03;;
5898;SDS011;2975;50.956;6.962;2023-02-20T07:35:36;10.93;;;7.13;;
5898;SDS011;2975;50.956;6.962;2023-02-20T07:38:01;13.07;;;6.77;;
5898;SDS011;2975;50.956;6.962;2023-02-20T07:40:27;13.43;;;6.90;;
5898;SDS011;2975;50.956;6.962;2023-02-20T07:42:53;11.73;;;7.00;;
5898;SDS011;2975;50.956;6.962;2023-02-20T07:45:19;14.40;;;6.60;;
5898;SDS011;2975;50.956;6.962;2023-02-20T07:47:45;10.90;;;6.33;;
5898;SDS011;2975;50.956;6.962;2023-02-20T07:50:10;10.80;;;6.40;;
5898;SDS011;2975;50.956;6.962;2023-02-20T07:52:36;12.33;;;6.63;;
5898;SDS011;2975;50.956;6.962;2023-02-20T07:55:02;12.70;;;7.43;;
5898;SDS011;2975;50.956;6.962;2023-02-20T07:57:28;10.87;;;5.80;;
5898;SDS011;2975;50.956;6.962;2023-02-20T07:59:57;16.73;;;6.40;;
5898;SDS011;2975;50.956;6.962;2023-02-20T08:02:23;15.40;;;6.70;;
5898;SDS011;2975;50.956;6.962;2023-02-20T08:04:48;12.87;;;7.07;;
5898;SDS011;2975;50.956;6.962;2023-02-20T08:07:14;13.93;;;7.30;;
5898;SDS011;2975;50.956;6.962;2023-02-20T08:09:40;10.10;;;5.47;;
5898;SDS011;2975;50.956;6.962;2023-02-20T08:12:05;9.23;;;4.97;;
5898;SDS011;2975;50.956;6.962;2023-02-20T08:14:31;10.47;;;5.80;;
5898;SDS011;2975;50.956;6.962;2023-02-20T08:16:56;13.43;;;5.10;;
5898;SDS011;2975;50.956;6.962;2023-02-20T08:19:22;9.07;;;4.87;;
5898;SDS011;2975;50.956;6.962;2023-02-20T08:21:48;8.97;;;5.00;;
5898;SDS011;2975;50.956;6.962;2023-02-20T08:24:13;9.20;;;5.00;;
5898;SDS011;2975;50.956;6.962;2023-02-20T08:26:42;6.80;;;4.53;;
5898;SDS011;2975;50.956;6.962;2023-02-20T08:29:08;13.33;;;4.97;;
5898;SDS011;2975;50.956;6.962;2023-02-20T08:31:34;11.23;;;4.60;;
5898;SDS011;2975;50.956;6.962;2023-02-20T08:34:00;11.50;;;4.43;;
5898;SDS011;2975;50.956;6.962;2023-02-20T08:36:25;10.93;;;4.00;;
5898;SDS011;2975;50.956;6.962;2023-02-20T08:38:51;8.10;;;3.90;;
5898;SDS011;2975;50.956;6.962;2023-02-20T08:41:17;7.57;;;4.43;;
5898;SDS011;2975;50.956;6.962;2023-02-20T08:43:42;9.80;;;4.00;;
5898;SDS011;2975;50.956;6.962;2023-02-20T08:46:08;9.60;;;4.30;;
5898;SDS011;2975;50.956;6.962;2023-02-20T08:48:34;5.10;;;3.60;;
5898;SDS011;2975;50.956;6.962;2023-02-20T08:51:00;8.37;;;3.87;;
5898;SDS011;2975;50.956;6.962;2023-02-20T08:53:26;9.37;;;4.60;;
5898;SDS011;2975;50.956;6.962;2023-02-20T08:55:52;6.73;;;4.00;;
5898;SDS011;2975;50.956;6.962;2023-02-20T08:58:18;5.97;;;3.97;;
5898;SDS011;2975;50.956;6.962;2023-02-20T09:00:45;10.40;;;4.17;;
5898;SDS011;2975;50.956;6.962;2023-02-20T09:03:11;8.10;;;3.90;;
5898;SDS011;2975;50.956;6.962;2023-02-20T09:05:36;6.03;;;4.10;;
5898;SDS011;2975;50.956;6.962;2023-02-20T09:08:02;7.00;;;3.67;;
5898;SDS011;2975;50.956;6.962;2023-02-20T09:10:27;5.23;;;3.53;;
5898;SDS011;2975;50.956;6.962;2023-02-20T09:12:53;6.30;;;4.00;;
5898;SDS011;2975;50.956;6.962;2023-02-20T09:15:19;9.10;;;4.37;;
5898;SDS011;2975;50.956;6.962;2023-02-20T09:17:48;6.27;;;3.60;;
5898;SDS011;2975;50.956;6.962;2023-02-20T09:20:15;8.20;;;3.93;;
5898;SDS011;2975;50.956;6.962;2023-02-20T09:22:44;9.93;;;4.67;;
5898;SDS011;2975;50.956;6.962;2023-02-20T09:25:10;7.87;;;4.60;;
5898;SDS011;2975;50.956;6.962;2023-02-20T09:27:37;11.10;;;4.67;;
5898;SDS011;2975;50.956;6.962;2023-02-20T09:30:03;5.33;;;3.87;;
5898;SDS011;2975;50.956;6.962;2023-02-20T09:32:29;10.30;;;4.83;;
5898;SDS011;2975;50.956;6.962;2023-02-20T09:34:55;7.67;;;4.43;;
5898;SDS011;2975;50.956;6.962;2023-02-20T09:37:22;11.37;;;4.80;;
5898;SDS011;2975;50.956;6.962;2023-02-20T09:39:47;7.13;;;4.13;;
5898;SDS011;2975;50.956;6.962;2023-02-20T09:42:22;9.40;;;4.43;;
5898;SDS011;2975;50.956;6.962;2023-02-20T09:50:06;10.30;;;4.83;;
5898;SDS011;2975;50.956;6.962;2023-02-20T09:52:37;9.07;;;4.80;;
5898;SDS011;2975;50.956;6.962;2023-02-20T09:55:05;11.10;;;4.97;;
5898;SDS011;2975;50.956;6.962;2023-02-20T09:57:36;7.60;;;4.70;;
5898;SDS011;2975;50.956;6.962;2023-02-20T10:02:37;9.87;;;5.53;;
5898;SDS011;2975;50.956;6.962;2023-02-20T10:05:18;12.80;;;6.00;;
5898;SDS011;2975;50.956;6.962;2023-02-20T10:07:47;11.10;;;5.37;;
5898;SDS011;2975;50.956;6.962;2023-02-20T10:10:24;11.17;;;5.10;;
5898;SDS011;2975;50.956;6.962;2023-02-20T10:12:57;13.33;;;5.90;;
5898;SDS011;2975;50.956;6.962;2023-02-20T10:21:06;8.03;;;4.93;;
5898;SDS011;2975;50.956;6.962;2023-02-20T10:26:11;7.77;;;5.73;;
5898;SDS011;2975;50.956;6.962;2023-02-20T10:28:49;10.93;;;6.30;;
5898;SDS011;2975;50.956;6.962;2023-02-20T10:31:25;10.67;;;5.63;;
5898;SDS011;2975;50.956;6.962;2023-02-20T10:34:31;9.70;;;5.03;;
5898;SDS011;2975;50.956;6.962;2023-02-20T10:36:54;8.13;;;5.33;;
5898;SDS011;2975;50.956;6.962;2023-02-20T10:39:25;8.30;;;5.83;;
5898;SDS011;2975;50.956;6.962;2023-02-20T10:42:00;10.23;;;5.60;;
5898;SDS011;2975;50.956;6.962;2023-02-20T10:50:07;9.97;;;5.90;;
5898;SDS011;2975;50.956;6.962;2023-02-20T10:52:39;10.40;;;6.27;;
5898;SDS011;2975;50.956;6.962;2023-02-20T10:55:27;9.87;;;5.90;;
5898;SDS011;2975;50.956;6.962;2023-02-20T11:00:32;12.30;;;6.47;;
5898;SDS011;2975;50.956;6.962;2023-02-20T11:03:07;11.93;;;6.33;;
5898;SDS011;2975;50.956;6.962;2023-02-20T11:05:39;12.30;;;6.33;;
5898;SDS011;2975;50.956;6.962;2023-02-20T11:08:12;10.83;;;6.67;;
5898;SDS011;2975;50.956;6.962;2023-02-20T11:10:38;10.67;;;6.03;;
5898;SDS011;2975;50.956;6.962;2023-02-20T11:13:04;8.87;;;6.50;;
5898;SDS011;2975;50.956;6.962;2023-02-20T11:15:36;10.40;;;5.90;;
5898;SDS011;2975;50.956;6.962;2023-02-20T11:18:03;11.83;;;6.90;;
5898;SDS011;2975;50.956;6.962;2023-02-20T11:20:56;12.77;;;6.87;;
5898;SDS011;2975;50.956;6.962;2023-02-20T11:23:35;12.37;;;6.70;;
5898;SDS011;2975;50.956;6.962;2023-02-20T11:28:59;12.30;;;6.80;;
5898;SDS011;2975;50.956;6.962;2023-02-20T11:31:29;12.50;;;6.77;;
5898;SDS011;2975;50.956;6.962;2023-02-20T11:33:55;17.40;;;6.97;;
5898;SDS011;2975;50.956;6.962;2023-02-20T11:36:22;9.37;;;6.90;;
5898;SDS011;2975;50.956;6.962;2023-02-20T11:38:58;11.90;;;6.63;;
5898;SDS011;2975;50.956;6.962;2023-02-20T11:41:37;14.00;;;7.30;;
5898;SDS011;2975;50.956;6.962;2023-02-20T11:46:36;10.07;;;6.53;;
5898;SDS011;2975;50.956;6.962;2023-02-20T11:51:34;10.40;;;6.60;;
5898;SDS011;2975;50.956;6.962;2023-02-20T11:54:18;11.10;;;6.80;;
5898;SDS011;2975;50.956;6.962;2023-02-20T11:56:59;10.93;;;6.10;;
5898;SDS011;2975;50.956;6.962;2023-02-20T11:59:38;14.47;;;7.20;;
5898;SDS011;2975;50.956;6.962;2023-02-20T12:02:17;13.60;;;7.10;;
5898;SDS011;2975;50.956;6.962;2023-02-20T12:05:06;14.87;;;7.77;;
5898;SDS011;2975;50.956;6.962;2023-02-20T12:07:42;12.20;;;7.37;;
5898;SDS011;2975;50.956;6.962;2023-02-20T12:10:31;11.33;;;7.30;;
5898;SDS011;2975;50.956;6.962;2023-02-20T12:13:28;12.00;;;7.00;;
5898;SDS011;2975;50.956;6.962;2023-02-20T12:16:05;11.33;;;7.17;;
5898;SDS011;2975;50.956;6.962;2023-02-20T12:27:28;11.13;;;7.27;;
5898;SDS011;2975;50.956;6.962;2023-02-20T12:43:56;15.23;;;8.77;;
5898;SDS011;2975;50.956;6.962;2023-02-20T12:54:51;16.83;;;9.47;;
5898;SDS011;2975;50.956;6.962;2023-02-20T12:57:25;16.67;;;8.80;;
5898;SDS011;2975;50.956;6.962;2023-02-20T13:05:47;14.50;;;8.57;;
5898;SDS011;2975;50.956;6.962;2023-02-20T13:10:52;14.77;;;8.03;;
5898;SDS011;2975;50.956;6.962;2023-02-20T13:13:21;18.20;;;9.90;;
5898;SDS011;2975;50.956;6.962;2023-02-20T13:15:51;13.80;;;8.53;;
5898;SDS011;2975;50.956;6.962;2023-02-20T13:18:50;15.70;;;9.03;;
5898;SDS011;2975;50.956;6.962;2023-02-20T13:21:36;14.73;;;8.37;;
5898;SDS011;2975;50.956;6.962;2023-02-20T13:24:47;16.37;;;8.57;;
5898;SDS011;2975;50.956;6.962;2023-02-20T13:26:51;14.17;;;8.30;;
5898;SDS011;2975;50.956;6.962;2023-02-20T13:29:22;18.17;;;8.60;;
5898;SDS011;2975;50.956;6.962;2023-02-20T13:31:54;14.83;;;8.83;;
5898;SDS011;2975;50.956;6.962;2023-02-20T13:37:03;14.37;;;8.13;;
5898;SDS011;2975;50.956;6.962;2023-02-20T13:39:49;15.53;;;8.70;;
5898;SDS011;2975;50.956;6.962;2023-02-20T13:42:25;11.93;;;8.50;;
5898;SDS011;2975;50.956;6.962;2023-02-20T13:44:51;12.77;;;7.67;;
5898;SDS011;2975;50.956;6.962;2023-02-20T13:57:41;16.20;;;8.93;;
5898;SDS011;2975;50.956;6.962;2023-02-20T14:00:22;16.43;;;8.77;;
5898;SDS011;2975;50.956;6.962;2023-02-20T14:02:48;14.60;;;8.20;;
5898;SDS011;2975;50.956;6.962;2023-02-20T14:05:21;15.07;;;8.77;;
5898;SDS011;2975;50.956;6.962;2023-02-20T14:07:53;15.20;;;8.07;;
5898;SDS011;2975;50.956;6.962;2023-02-20T14:15:54;16.10;;;8.67;;
5898;SDS011;2975;50.956;6.962;2023-02-20T14:18:25;19.03;;;9.47;;
5898;SDS011;2975;50.956;6.962;2023-02-20T14:21:15;16.23;;;8.27;;
5898;SDS011;2975;50.956;6.962;2023-02-20T14:23:38;13.13;;;8.43;;
5898;SDS011;2975;50.956;6.962;2023-02-20T14:26:09;17.77;;;9.13;;
5898;SDS011;2975;50.956;6.962;2023-02-20T14:28:46;16.43;;;7.47;;
5898;SDS011;2975;50.956;6.962;2023-02-20T14:33:44;13.20;;;7.50;;
5898;SDS011;2975;50.956;6.962;2023-02-20T14:36:25;15.93;;;8.40;;
5898;SDS011;2975;50.956;6.962;2023-02-20T14:41:30;12.20;;;7.30;;
5898;SDS011;2975;50.956;6.962;2023-02-20T14:43:57;10.90;;;6.80;;
5898;SDS011;2975;50.956;6.962;2023-02-20T14:46:29;14.77;;;8.20;;
5898;SDS011;2975;50.956;6.962;2023-02-20T14:49:03;14.87;;;7.63;;
5898;SDS011;2975;50.956;6.962;2023-02-20T14:51:39;12.30;;;7.83;;
5898;SDS011;2975;50.956;6.962;2023-02-20T14:56:37;17.77;;;8.03;;
5898;SDS011;2975;50.956;6.962;2023-02-20T15:02:01;12.43;;;7.90;;
5898;SDS011;2975;50.956;6.962;2023-02-20T15:05:29;12.47;;;7.40;;
5898;SDS011;2975;50.956;6.962;2023-02-20T15:07:38;14.73;;;7.93;;
5898;SDS011;2975;50.956;6.962;2023-02-20T15:10:05;15.30;;;6.97;;
5898;SDS011;2975;50.956;6.962;2023-02-20T15:13:08;14.47;;;7.90;;
5898;SDS011;2975;50.956;6.962;2023-02-20T15:15:38;13.70;;;8.63;;
5898;SDS011;2975;50.956;6.962;2023-02-20T15:18:16;13.77;;;8.03;;
5898;SDS011;2975;50.956;6.962;2023-02-20T15:20:54;15.30;;;7.70;;
5898;SDS011;2975;50.956;6.962;2023-02-20T15:23:30;11.67;;;7.43;;
5898;SDS011;2975;50.956;6.962;2023-02-20T15:25:57;12.47;;;7.63;;
5898;SDS011;2975;50.956;6.962;2023-02-20T15:28:43;10.97;;;7.63;;
5898;SDS011;2975;50.956;6.962;2023-02-20T15:33:35;10.83;;;7.47;;
5898;SDS011;2975;50.956;6.962;2023-02-20T15:36:04;15.73;;;7.87;;
5898;SDS011;2975;50.956;6.962;2023-02-20T15:38:35;12.33;;;7.50;;
5898;SDS011;2975;50.956;6.962;2023-02-20T15:41:01;14.00;;;7.63;;
5898;SDS011;2975;50.956;6.962;2023-02-20T15:43:28;13.47;;;7.80;;
5898;SDS011;2975;50.956;6.962;2023-02-20T15:45:54;12.40;;;7.57;;
5898;SDS011;2975;50.956;6.962;2023-02-20T15:48:20;13.07;;;7.83;;
5898;SDS011;2975;50.956;6.962;2023-02-20T15:50:47;12.23;;;7.10;;
5898;SDS011;2975;50.956;6.962;2023-02-20T15:53:17;13.23;;;7.77;;
5898;SDS011;2975;50.956;6.962;2023-02-20T15:55:46;9.13;;;6.77;;
5898;SDS011;2975;50.956;6.962;2023-02-20T15:58:25;10.67;;;7.27;;
5898;SDS011;2975;50.956;6.962;2023-02-20T16:01:00;11.30;;;6.97;;
5898;SDS011;2975;50.956;6.962;2023-02-20T16:03:26;10.90;;;7.13;;
5898;SDS011;2975;50.956;6.962;2023-02-20T16:05:53;13.47;;;7.37;;
5898;SDS011;2975;50.956;6.962;2023-02-20T16:08:20;12.43;;;7.37;;
5898;SDS011;2975;50.956;6.962;2023-02-20T16:10:46;12.83;;;7.40;;
5898;SDS011;2975;50.956;6.962;2023-02-20T16:13:22;13.37;;;7.43;;
5898;SDS011;2975;50.956;6.962;2023-02-20T16:15:57;10.90;;;6.87;;
5898;SDS011;2975;50.956;6.962;2023-02-20T16:18:31;11.37;;;7.03;;
5898;SDS011;2975;50.956;6.962;2023-02-20T16:20:56;19.37;;;8.53;;
5898;SDS011;2975;50.956;6.962;2023-02-20T16:23:22;11.17;;;7.70;;
5898;SDS011;2975;50.956;6.962;2023-02-20T16:25:48;13.60;;;7.50;;
5898;SDS011;2975;50.956;6.962;2023-02-20T16:28:14;13.90;;;7.50;;
5898;SDS011;2975;50.956;6.962;2023-02-20T16:30:41;11.23;;;7.07;;
5898;SDS011;2975;50.956;6.962;2023-02-20T16:33:21;12.50;;;7.60;;
5898;SDS011;2975;50.956;6.962;2023-02-20T16:35:48;11.73;;;7.17;;
5898;SDS011;2975;50.956;6.962;2023-02-20T16:38:15;10.70;;;6.90;;
5898;SDS011;2975;50.956;6.962;2023-02-20T16:40:41;12.77;;;7.23;;
5898;SDS011;2975;50.956;6.962;2023-02-20T16:43:07;11.20;;;7.53;;
5898;SDS011;2975;50.956;6.962;2023-02-20T16:45:38;9.07;;;6.60;;
5898;SDS011;2975;50.956;6.962;2023-02-20T16:48:07;9.57;;;7.17;;
5898;SDS011;2975;50.956;6.962;2023-02-20T16:50:38;8.30;;;5.90;;
5898;SDS011;2975;50.956;6.962;2023-02-20T16:53:04;15.77;;;7.20;;
5898;SDS011;2975;50.956;6.962;2023-02-20T16:55:36;9.17;;;7.03;;
5898;SDS011;2975;50.956;6.962;2023-02-20T16:58:05;11.97;;;7.10;;
5898;SDS011;2975;50.956;6.962;2023-02-20T17:00:34;13.77;;;7.90;;
5898;SDS011;2975;50.956;6.962;2023-02-20T17:03:03;12.20;;;7.80;;
5898;SDS011;2975;50.956;6.962;2023-02-20T17:05:31;13.67;;;7.80;;
5898;SDS011;2975;50.956;6.962;2023-02-20T17:07:59;12.27;;;7.37;;
5898;SDS011;2975;50.956;6.962;2023-02-20T17:10:25;10.97;;;7.10;;
5898;SDS011;2975;50.956;6.962;2023-02-20T17:12:52;10.27;;;6.80;;
5898;SDS011;2975;50.956;6.962;2023-02-20T17:15:20;11.57;;;6.93;;
5898;SDS011;2975;50.956;6.962;2023-02-20T17:17:46;15.37;;;7.73;;
5898;SDS011;2975;50.956;6.962;2023-02-20T17:20:16;19.33;;;8.83;;
5898;SDS011;2975;50.956;6.962;2023-02-20T17:22:47;12.83;;;7.20;;
5898;SDS011;2975;50.956;6.962;2023-02-20T17:25:15;13.43;;;7.50;;
5898;SDS011;2975;50.956;6.962;2023-02-20T17:27:44;11.73;;;8.40;;
5898;SDS011;2975;50.956;6.962;2023-02-20T17:30:10;16.00;;;9.00;;
5898;SDS011;2975;50.956;6.962;2023-02-20T17:32:36;13.90;;;8.70;;
5898;SDS011;2975;50.956;6.962;2023-02-20T17:35:02;15.03;;;8.67;;
5898;SDS011;2975;50.956;6.962;2023-02-20T17:37:28;14.90;;;8.77;;
5898;SDS011;2975;50.956;6.962;2023-02-20T17:39:55;16.10;;;8.97;;
5898;SDS011;2975;50.956;6.962;2023-02-20T17:42:22;19.63;;;9.97;;